sensor_id;sensor_type;location;lat;lon;timestamp;pressure;altitude;pressure_sealevel;temperature
38249;BMP280;24045;51.138;17.126;2023-05-07T00:13:20;100684.83;;;8.61
38249;BMP280;24045;51.138;17.126;2023-05-07T00:28:23;100689.35;;;8.63
38249;BMP280;24045;51.138;17.126;2023-05-07T00:43:25;100695.89;;;8.63
38249;BMP280;24045;51.138;17.126;2023-05-07T00:58:30;100701.87;;;8.65
38249;BMP280;24045;51.138;17.126;2023-05-07T01:13:34;100709.61;;;8.64
38249;BMP280;24045;51.138;17.126;2023-05-07T01:28:37;100712.64;;;8.63
38249;BMP280;24045;51.138;17.126;2023-05-07T01:43:40;100710.09;;;8.54
38249;BMP280;24045;51.138;17.126;2023-05-07T01:58:44;100714.83;;;8.53
38249;BMP280;24045;51.138;17.126;2023-05-07T02:13:48;100718.09;;;8.49
38249;BMP280;24045;51.138;17.126;2023-05-07T02:28:51;100731.87;;;8.44
38249;BMP280;24045;51.138;17.126;2023-05-07T02:43:54;100729.10;;;8.40
38249;BMP280;24045;51.138;17.126;2023-05-07T02:58:57;100733.48;;;8.36
38249;BMP280;24045;51.138;17.126;2023-05-07T03:14:00;100750.17;;;8.29
38249;BMP280;24045;51.138;17.126;2023-05-07T03:29:03;100752.61;;;8.23
38249;BMP280;24045;51.138;17.126;2023-05-07T03:44:06;100769.45;;;8.22
38249;BMP280;24045;51.138;17.126;2023-05-07T03:59:08;100779.98;;;8.20
38249;BMP280;24045;51.138;17.126;2023-05-07T04:14:11;100798.61;;;8.20
38249;BMP280;24045;51.138;17.126;2023-05-07T04:29:14;100815.67;;;8.22
38249;BMP280;24045;51.138;17.126;2023-05-07T04:44:16;100828.57;;;8.18
38249;BMP280;24045;51.138;17.126;2023-05-07T04:59:19;100845.60;;;8.37
38249;BMP280;24045;51.138;17.126;2023-05-07T05:14:22;100864.97;;;8.70
38249;BMP280;24045;51.138;17.126;2023-05-07T05:29:24;100883.31;;;8.56
38249;BMP280;24045;51.138;17.126;2023-05-07T05:44:27;100898.95;;;8.44
38249;BMP280;24045;51.138;17.126;2023-05-07T05:59:30;100905.00;;;8.48
38249;BMP280;24045;51.138;17.126;2023-05-07T06:14:33;100908.92;;;8.67
38249;BMP280;24045;51.138;17.126;2023-05-07T06:29:35;100917.98;;;8.74
38249;BMP280;24045;51.138;17.126;2023-05-07T06:44:38;100931.86;;;8.80
38249;BMP280;24045;51.138;17.126;2023-05-07T06:59:41;100955.11;;;8.64
38249;BMP280;24045;51.138;17.126;2023-05-07T07:14:44;100966.62;;;8.58
38249;BMP280;24045;51.138;17.126;2023-05-07T07:29:47;100973.88;;;9.12
38249;BMP280;24045;51.138;17.126;2023-05-07T07:44:50;100984.91;;;9.23
38249;BMP280;24045;51.138;17.126;2023-05-07T07:59:52;101002.05;;;9.16
38249;BMP280;24045;51.138;17.126;2023-05-07T08:14:55;101032.23;;;8.87
38249;BMP280;24045;51.138;17.126;2023-05-07T08:29:58;101027.68;;;8.64
38249;BMP280;24045;51.138;17.126;2023-05-07T08:45:02;101045.45;;;8.59
38249;BMP280;24045;51.138;17.126;2023-05-07T09:00:08;101058.09;;;8.60
38249;BMP280;24045;51.138;17.126;2023-05-07T09:15:12;101075.13;;;8.81
38249;BMP280;24045;51.138;17.126;2023-05-07T09:30:15;101084.17;;;8.93
38249;BMP280;24045;51.138;17.126;2023-05-07T09:45:23;101092.14;;;8.97
38249;BMP280;24045;51.138;17.126;2023-05-07T10:00:27;101085.05;;;9.67
38249;BMP280;24045;51.138;17.126;2023-05-07T10:15:31;101086.88;;;10.24
38249;BMP280;24045;51.138;17.126;2023-05-07T10:46:11;101106.38;;;10.32
38249;BMP280;24045;51.138;17.126;2023-05-07T11:01:14;101106.27;;;10.80
38249;BMP280;24045;51.138;17.126;2023-05-07T11:16:23;101106.27;;;10.64
38249;BMP280;24045;51.138;17.126;2023-05-07T11:31:27;101101.67;;;10.52
38249;BMP280;24045;51.138;17.126;2023-05-07T11:46:32;101122.36;;;10.88
38249;BMP280;24045;51.138;17.126;2023-05-07T12:01:35;101140.91;;;10.63
38249;BMP280;24045;51.138;17.126;2023-05-07T12:16:39;101151.06;;;10.76
38249;BMP280;24045;51.138;17.126;2023-05-07T12:31:43;101157.77;;;10.70
38249;BMP280;24045;51.138;17.126;2023-05-07T12:46:46;101173.08;;;10.48
38249;BMP280;24045;51.138;17.126;2023-05-07T13:01:50;101170.49;;;10.67
38249;BMP280;24045;51.138;17.126;2023-05-07T13:16:53;101174.67;;;10.40
38249;BMP280;24045;51.138;17.126;2023-05-07T13:31:56;101190.42;;;10.23
38249;BMP280;24045;51.138;17.126;2023-05-07T13:46:59;101206.24;;;10.51
38249;BMP280;24045;51.138;17.126;2023-05-07T14:02:03;101214.62;;;10.31
38249;BMP280;24045;51.138;17.126;2023-05-07T14:17:05;101210.03;;;10.28
38249;BMP280;24045;51.138;17.126;2023-05-07T14:32:09;101211.23;;;10.22
38249;BMP280;24045;51.138;17.126;2023-05-07T14:47:11;101204.00;;;10.36
38249;BMP280;24045;51.138;17.126;2023-05-07T15:02:14;101216.82;;;10.42
38249;BMP280;24045;51.138;17.126;2023-05-07T15:17:18;101224.86;;;10.48
38249;BMP280;24045;51.138;17.126;2023-05-07T15:32:20;101224.28;;;10.63
38249;BMP280;24045;51.138;17.126;2023-05-07T15:47:23;101236.23;;;10.54
38249;BMP280;24045;51.138;17.126;2023-05-07T16:02:26;101234.10;;;10.31
38249;BMP280;24045;51.138;17.126;2023-05-07T16:17:29;101225.40;;;10.32
38249;BMP280;24045;51.138;17.126;2023-05-07T16:32:32;101240.17;;;10.29
38249;BMP280;24045;51.138;17.126;2023-05-07T16:47:34;101246.70;;;10.26
38249;BMP280;24045;51.138;17.126;2023-05-07T17:02:38;101244.04;;;10.20
38249;BMP280;24045;51.138;17.126;2023-05-07T17:17:41;101240.89;;;10.11
38249;BMP280;24045;51.138;17.126;2023-05-07T17:32:43;101246.31;;;10.04
38249;BMP280;24045;51.138;17.126;2023-05-07T17:47:46;101258.07;;;9.97
38249;BMP280;24045;51.138;17.126;2023-05-07T18:02:52;101266.05;;;9.88
38249;BMP280;24045;51.138;17.126;2023-05-07T18:17:55;101278.48;;;9.77
38249;BMP280;24045;51.138;17.126;2023-05-07T18:32:58;101287.19;;;9.63
38249;BMP280;24045;51.138;17.126;2023-05-07T18:48:01;101301.73;;;9.53
38249;BMP280;24045;51.138;17.126;2023-05-07T19:03:04;101316.60;;;9.41
38249;BMP280;24045;51.138;17.126;2023-05-07T19:18:08;101327.98;;;9.33
38249;BMP280;24045;51.138;17.126;2023-05-07T19:33:10;101349.16;;;9.24
38249;BMP280;24045;51.138;17.126;2023-05-07T19:48:14;101366.58;;;9.21
38249;BMP280;24045;51.138;17.126;2023-05-07T20:03:17;101371.52;;;9.20
38249;BMP280;24045;51.138;17.126;2023-05-07T20:18:20;101380.90;;;9.19
38249;BMP280;24045;51.138;17.126;2023-05-07T20:33:23;101384.44;;;9.13
38249;BMP280;24045;51.138;17.126;2023-05-07T20:48:30;101396.75;;;9.04
38249;BMP280;24045;51.138;17.126;2023-05-07T21:03:32;101393.73;;;8.98
38249;BMP280;24045;51.138;17.126;2023-05-07T21:18:35;101407.12;;;8.76
38249;BMP280;24045;51.138;17.126;2023-05-07T21:33:38;101418.73;;;8.26
38249;BMP280;24045;51.138;17.126;2023-05-07T21:48:41;101424.02;;;7.73
38249;BMP280;24045;51.138;17.126;2023-05-07T22:03:44;101431.51;;;7.17
38249;BMP280;24045;51.138;17.126;2023-05-07T22:18:47;101425.73;;;6.78
38249;BMP280;24045;51.138;17.126;2023-05-07T22:33:51;101422.71;;;6.43
38249;BMP280;24045;51.138;17.126;2023-05-07T22:48:54;101418.27;;;5.88
38249;BMP280;24045;51.138;17.126;2023-05-07T23:03:57;101408.44;;;5.59
38249;BMP280;24045;51.138;17.126;2023-05-07T23:18:59;101404.02;;;5.42
38249;BMP280;24045;51.138;17.126;2023-05-07T23:34:02;101412.71;;;5.24
38249;BMP280;24045;51.138;17.126;2023-05-07T23:49:04;101417.89;;;4.97
